createdAt,value
2022-10-05T00:02:00.953Z,88.50
2022-10-05T00:07:24.730Z,88.51
2022-10-05T00:12:29.781Z,88.50
2022-10-05T00:17:32.507Z,88.63
2022-10-05T00:22:36.104Z,88.72
2022-10-05T00:27:39.636Z,88.85
2022-10-05T00:32:43.142Z,89.01
2022-10-05T00:37:51.281Z,88.94
2022-10-05T00:43:19.966Z,89.02
2022-10-05T00:48:32.760Z,89.32
2022-10-05T00:53:47.345Z,88.94
2022-10-05T00:59:15.725Z,89.11
2022-10-05T01:04:42.587Z,89.72
2022-10-05T01:10:06.672Z,90.37
2022-10-05T01:15:15.818Z,89.54
2022-10-05T01:20:45.653Z,90.35
2022-10-05T01:26:07.370Z,90.81
2022-10-05T01:31:27.069Z,90.48
2022-10-05T01:36:49.900Z,90.86
2022-10-05T01:42:11.326Z,90.28
2022-10-05T01:47:42.640Z,90.70
2022-10-05T01:52:56.533Z,90.87
2022-10-05T01:58:01.993Z,90.81
2022-10-05T02:03:21.237Z,91.78
2022-10-05T02:08:42.391Z,91.64
2022-10-05T02:13:59.113Z,91.18
2022-10-05T02:19:22.232Z,91.25
2022-10-05T02:24:32.570Z,91.78
2022-10-05T02:29:40.066Z,91.71
2022-10-05T02:34:44.477Z,91.37
2022-10-05T02:40:18.737Z,92.12
2022-10-05T02:46:03.066Z,91.73
2022-10-05T02:51:18.402Z,91.98
2022-10-05T02:56:45.358Z,91.88
2022-10-05T03:01:52.961Z,92.01
2022-10-05T03:07:19.049Z,91.86
2022-10-05T03:12:50.573Z,92.06
2022-10-05T03:18:13.625Z,92.20
2022-10-05T03:23:43.352Z,92.37
2022-10-05T03:29:20.124Z,92.77
2022-10-05T03:34:31.271Z,92.34
2022-10-05T03:39:44.981Z,92.45
2022-10-05T03:45:23.064Z,92.47
2022-10-05T03:50:43.316Z,92.41
2022-10-05T03:56:33.493Z,92.82
2022-10-05T04:01:45.809Z,92.39
2022-10-05T04:06:50.885Z,92.16
2022-10-05T04:12:20.411Z,92.21
2022-10-05T04:18:05.741Z,92.46
2022-10-05T04:23:21.454Z,92.26
2022-10-05T04:28:33.716Z,92.27
2022-10-05T04:33:38.003Z,92.12
2022-10-05T04:38:49.178Z,91.64
2022-10-05T04:44:07.067Z,91.63
2022-10-05T04:49:51.701Z,91.88
2022-10-05T04:55:13.439Z,91.95
2022-10-05T05:00:25.371Z,91.64
2022-10-05T05:06:15.419Z,92.28
2022-10-05T05:11:15.904Z,92.43
2022-10-05T05:16:37.462Z,91.73
2022-10-05T05:22:07.373Z,91.86
2022-10-05T05:27:48.377Z,91.15
2022-10-05T05:33:10.343Z,91.03
2022-10-05T05:38:24.751Z,91.32
2022-10-05T05:43:47.503Z,91.49
2022-10-05T05:48:51.873Z,91.15
2022-10-05T05:54:10.163Z,90.90
2022-10-05T05:59:20.484Z,90.24
2022-10-05T06:04:46.653Z,89.53
2022-10-05T06:09:57.972Z,89.59
2022-10-05T06:15:24.761Z,88.43
2022-10-05T06:20:45.764Z,87.73
2022-10-05T06:25:55.028Z,87.17
2022-10-05T06:31:05.148Z,87.34
2022-10-05T06:36:34.739Z,87.02
2022-10-05T06:41:47.817Z,86.24
2022-10-05T06:47:23.346Z,86.19
2022-10-05T06:52:53.892Z,84.36
2022-10-05T06:58:15.886Z,82.79
2022-10-05T07:03:34.318Z,82.08
2022-10-05T07:08:58.860Z,80.56
2022-10-05T07:14:07.903Z,79.50
2022-10-05T07:19:22.592Z,79.17
2022-10-05T07:24:41.977Z,78.80
2022-10-05T07:29:44.642Z,78.63
2022-10-05T07:35:04.226Z,78.32
2022-10-05T07:40:42.157Z,79.42
2022-10-05T07:45:50.902Z,79.81
2022-10-05T07:51:03.626Z,79.82
2022-10-05T07:56:21.801Z,78.95
2022-10-05T08:01:32.102Z,78.70
2022-10-05T08:06:52.504Z,79.23
2022-10-05T08:12:14.849Z,81.11
2022-10-05T08:17:25.615Z,82.79
2022-10-05T08:22:41.098Z,83.24
2022-10-05T08:27:48.329Z,83.53
2022-10-05T08:33:00.067Z,83.29
2022-10-05T08:38:27.790Z,82.48
2022-10-05T08:43:54.946Z,81.99
2022-10-05T08:49:44.827Z,80.57
2022-10-05T08:54:50.924Z,79.77
2022-10-05T09:00:11.929Z,78.86
2022-10-05T09:05:23.745Z,78.65
2022-10-05T09:10:32.188Z,78.53
2022-10-05T09:16:08.472Z,79.37
2022-10-05T09:21:43.269Z,79.26
2022-10-05T09:26:45.853Z,78.45
2022-10-05T09:32:16.376Z,77.92
2022-10-05T09:37:28.267Z,76.45
2022-10-05T09:42:52.357Z,76.14
2022-10-05T09:47:59.907Z,74.65
2022-10-05T09:53:27.378Z,74.77
2022-10-05T09:58:55.973Z,75.58
2022-10-05T10:04:25.404Z,77.63
2022-10-05T10:09:38.810Z,77.30
2022-10-05T10:15:18.857Z,77.25
2022-10-05T10:20:40.120Z,77.82
2022-10-05T10:25:57.673Z,77.70
2022-10-05T10:31:47.775Z,77.95
2022-10-05T10:37:17.534Z,77.29
2022-10-05T10:42:51.030Z,75.97
2022-10-05T10:48:00.428Z,75.01
2022-10-05T10:53:31.087Z,74.83
2022-10-05T10:58:48.697Z,74.89
2022-10-05T11:04:09.869Z,75.42
2022-10-05T11:09:54.169Z,74.29
2022-10-05T11:15:11.799Z,74.10
2022-10-05T11:20:38.937Z,74.21
2022-10-05T11:25:58.197Z,75.40
2022-10-05T11:31:25.306Z,76.84
2022-10-05T11:36:53.564Z,78.44
2022-10-05T11:42:17.753Z,77.62
2022-10-05T11:47:52.763Z,76.59
2022-10-05T11:53:24.496Z,77.96
2022-10-05T11:58:33.881Z,78.80
2022-10-05T12:03:45.361Z,79.54
2022-10-05T12:09:04.849Z,79.66
2022-10-05T12:14:20.445Z,79.23
2022-10-05T12:19:31.767Z,79.19
2022-10-05T12:24:37.167Z,79.07
2022-10-05T12:29:46.933Z,79.11
2022-10-05T12:35:01.927Z,79.10
2022-10-05T12:40:23.669Z,79.73
2022-10-05T12:45:37.532Z,78.89
2022-10-05T12:50:50.242Z,78.25
2022-10-05T12:56:29.911Z,78.59
2022-10-05T13:01:35.576Z,79.19
2022-10-05T13:07:04.325Z,78.99
2022-10-05T13:12:26.993Z,79.63
2022-10-05T13:17:33.103Z,79.90
2022-10-05T13:22:42.549Z,79.65
2022-10-05T13:28:16.807Z,79.20
2022-10-05T13:33:26.824Z,78.96
2022-10-05T13:38:43.508Z,78.07
2022-10-05T13:44:04.472Z,78.11
2022-10-05T13:49:06.945Z,78.62
2022-10-05T13:54:28.847Z,79.59
2022-10-05T13:59:57.687Z,79.89
2022-10-05T14:05:02.346Z,80.41
2022-10-05T14:10:13.168Z,80.57
2022-10-05T14:15:39.830Z,80.41
2022-10-05T14:26:27.497Z,81.53
2022-10-05T14:31:36.466Z,81.55
2022-10-05T14:36:44.161Z,81.95
2022-10-05T14:41:50.665Z,82.12
2022-10-05T14:46:56.798Z,82.44
2022-10-05T14:51:59.726Z,83.32
2022-10-05T14:57:08.206Z,83.11
2022-10-05T15:02:29.713Z,84.02
2022-10-05T15:07:41.326Z,83.64
2022-10-05T15:12:49.791Z,84.09
2022-10-05T15:17:59.705Z,83.77
2022-10-05T15:23:31.849Z,83.69
2022-10-05T15:28:41.529Z,82.88
2022-10-05T15:33:55.735Z,83.33
2022-10-05T15:39:17.962Z,83.32
2022-10-05T15:44:29.211Z,83.48
2022-10-05T15:49:50.464Z,83.74
2022-10-05T15:55:20.875Z,83.30
2022-10-05T16:00:27.894Z,83.72
2022-10-05T16:06:18.588Z,83.71
2022-10-05T16:11:36.928Z,83.63
2022-10-05T16:17:10.196Z,83.48
2022-10-05T16:22:33.543Z,83.54
2022-10-05T16:27:48.501Z,83.96
2022-10-05T16:33:20.581Z,84.47
2022-10-05T16:38:42.657Z,84.62
2022-10-05T16:43:53.578Z,84.94
2022-10-05T16:49:17.993Z,84.85
2022-10-05T16:54:47.748Z,84.37
2022-10-05T17:00:22.419Z,84.48
2022-10-05T17:06:10.558Z,84.96
2022-10-05T17:11:22.374Z,85.00
2022-10-05T17:16:45.612Z,85.00
2022-10-05T17:22:07.884Z,85.33
2022-10-05T17:27:26.757Z,85.05
2022-10-05T17:32:54.066Z,84.87
2022-10-05T17:38:30.764Z,85.68
2022-10-05T17:43:34.300Z,86.02
2022-10-05T17:49:15.723Z,86.68
2022-10-05T17:54:41.236Z,86.17
2022-10-05T17:59:46.839Z,85.94
2022-10-05T18:05:07.233Z,85.78
2022-10-05T18:10:10.056Z,86.62
2022-10-05T18:15:24.209Z,87.07
2022-10-05T18:20:27.105Z,86.66
2022-10-05T18:25:46.048Z,87.41
2022-10-05T18:31:10.217Z,87.31
2022-10-05T18:36:27.285Z,88.05
2022-10-05T18:41:57.777Z,88.00
2022-10-05T18:47:32.463Z,87.90
2022-10-05T18:52:41.411Z,88.15
2022-10-05T18:57:55.971Z,89.21
2022-10-05T19:03:18.378Z,89.79
2022-10-05T19:08:45.575Z,89.36
2022-10-05T19:14:01.110Z,89.76
2022-10-05T19:19:42.778Z,90.22
2022-10-05T19:24:53.878Z,89.82
2022-10-05T19:30:20.780Z,88.97
2022-10-05T19:35:36.145Z,89.78
2022-10-05T19:40:56.710Z,89.64
2022-10-05T19:46:19.023Z,89.87
2022-10-05T19:51:29.618Z,90.20
2022-10-05T19:56:34.177Z,89.81
2022-10-05T20:01:41.199Z,89.87
2022-10-05T20:06:43.884Z,90.50
2022-10-05T20:11:51.172Z,90.08
2022-10-05T20:17:33.141Z,90.26
2022-10-05T20:22:38.079Z,90.87
2022-10-05T20:27:41.399Z,90.55
2022-10-05T20:32:47.217Z,90.66
2022-10-05T20:37:52.806Z,90.36
2022-10-05T20:42:56.384Z,90.79
2022-10-05T20:47:59.223Z,91.04
2022-10-05T20:53:01.898Z,90.87
2022-10-05T20:58:04.550Z,91.01
2022-10-05T21:03:09.802Z,90.85
2022-10-05T21:08:12.419Z,91.26
2022-10-05T21:13:15.100Z,92.20
2022-10-05T21:18:20.376Z,91.77
2022-10-05T21:23:23.065Z,92.49
2022-10-05T21:28:26.103Z,92.21
2022-10-05T21:33:29.239Z,92.39
2022-10-05T21:38:32.121Z,92.22
2022-10-05T21:43:35.353Z,92.05
2022-10-05T21:48:39.773Z,91.74
2022-10-05T21:53:48.873Z,91.26
2022-10-05T21:58:52.309Z,91.61
2022-10-05T22:03:54.961Z,91.62
2022-10-05T22:08:58.036Z,91.92
2022-10-05T22:14:03.648Z,92.28
2022-10-05T22:19:14.628Z,91.78
2022-10-05T22:24:17.209Z,92.87
2022-10-05T22:29:20.827Z,92.30
2022-10-05T22:34:23.604Z,93.09
2022-10-05T22:39:26.174Z,93.41
2022-10-05T22:44:28.729Z,93.40
2022-10-05T22:49:31.425Z,93.57
2022-10-05T22:54:37.209Z,93.66
2022-10-05T22:59:40.179Z,93.80
2022-10-05T23:04:42.806Z,93.88
2022-10-05T23:09:45.355Z,93.62
2022-10-05T23:14:48.053Z,93.69
2022-10-05T23:19:51.831Z,93.89
2022-10-05T23:24:55.103Z,94.10
2022-10-05T23:29:57.713Z,94.29
2022-10-05T23:35:00.381Z,94.10
2022-10-05T23:40:03.387Z,94.18
2022-10-05T23:45:06.978Z,93.78
2022-10-05T23:50:09.954Z,93.94
2022-10-05T23:55:12.506Z,93.76
